createdAt,value
2019-01-02T00:01:34.186Z,35.30
2019-01-02T00:04:05.015Z,31.73
2019-01-02T00:06:34.873Z,22.97
2019-01-02T00:09:06.339Z,31.83
2019-01-02T00:11:35.905Z,32.40
2019-01-02T00:14:05.414Z,32.90
2019-01-02T00:16:34.891Z,32.27
2019-01-02T00:19:04.450Z,36.73
2019-01-02T00:21:34.199Z,28.83
2019-01-02T00:24:03.700Z,32.90
2019-01-02T00:26:33.479Z,26.93
2019-01-02T00:29:03.000Z,27.00
2019-01-02T00:31:33.059Z,39.57
2019-01-02T00:34:02.543Z,27.90
2019-01-02T00:36:32.299Z,21.53
2019-01-02T00:39:01.794Z,27.20
2019-01-02T00:41:32.522Z,27.57
2019-01-02T00:44:02.030Z,34.30
2019-01-02T00:46:33.132Z,29.77
2019-01-02T00:49:02.912Z,30.73
2019-01-02T00:51:32.713Z,41.53
2019-01-02T00:54:02.687Z,27.87
2019-01-02T00:56:32.172Z,28.03
2019-01-02T00:59:01.957Z,43.80
2019-01-02T01:01:32.006Z,33.73
2019-01-02T01:04:01.789Z,32.07
2019-01-02T01:06:31.578Z,31.90
2019-01-02T01:09:01.405Z,26.63
2019-01-02T01:11:32.831Z,30.77
2019-01-02T01:14:02.619Z,40.20
2019-01-02T01:16:32.243Z,32.90
2019-01-02T01:19:02.186Z,38.57
2019-01-02T01:21:32.037Z,30.03
2019-01-02T01:24:01.789Z,28.07
2019-01-02T01:26:31.537Z,35.17
2019-01-02T01:29:01.052Z,36.53
2019-01-02T01:31:32.606Z,33.23
2019-01-02T01:34:02.667Z,35.93
2019-01-02T01:36:32.155Z,36.53
2019-01-02T01:39:01.635Z,33.27
2019-01-02T01:41:32.304Z,33.77
2019-01-02T01:44:05.171Z,47.57
2019-01-02T01:46:34.977Z,36.27
2019-01-02T01:49:04.672Z,39.17
2019-01-02T01:51:34.564Z,31.00
2019-01-02T01:54:04.316Z,37.07
2019-01-02T01:56:34.103Z,27.63
2019-01-02T01:59:03.606Z,30.80
2019-01-02T02:01:33.457Z,26.93
2019-01-02T02:04:03.611Z,43.07
2019-01-02T02:06:33.378Z,28.43
2019-01-02T02:09:03.292Z,26.97
2019-01-02T02:11:33.060Z,35.43
2019-01-02T02:14:02.573Z,32.90
2019-01-02T02:16:32.370Z,32.90
2019-01-02T02:19:02.269Z,36.53
2019-01-02T02:21:31.811Z,38.98
2019-01-02T02:24:01.616Z,32.60
2019-01-02T02:26:31.142Z,42.77
2019-01-02T02:29:00.906Z,47.47
2019-01-02T02:31:30.431Z,40.17
2019-01-02T02:34:00.274Z,37.40
2019-01-02T02:36:30.247Z,46.67
2019-01-02T02:39:00.027Z,40.73
2019-01-02T02:41:30.347Z,29.92
2019-01-02T02:44:00.610Z,38.57
2019-01-02T02:46:30.708Z,42.33
2019-01-02T02:49:00.458Z,41.57
2019-01-02T02:51:30.245Z,34.93
2019-01-02T02:54:00.579Z,37.57
2019-01-02T02:56:31.340Z,50.47
2019-01-02T02:59:01.525Z,34.23
2019-01-02T03:01:31.232Z,44.07
2019-01-02T03:04:01.023Z,48.57
2019-01-02T03:06:30.827Z,78.93
2019-01-02T03:09:00.696Z,42.33
2019-01-02T03:11:31.863Z,35.83
2019-01-02T03:14:01.620Z,42.53
2019-01-02T03:16:31.701Z,36.67
2019-01-02T03:19:01.461Z,52.93
2019-01-02T03:21:32.045Z,32.87
2019-01-02T03:24:02.311Z,42.57
2019-01-02T03:26:31.837Z,49.23
2019-01-02T03:29:01.648Z,45.40
2019-01-02T03:31:31.719Z,40.57
2019-01-02T03:34:01.613Z,53.13
2019-01-02T03:36:31.510Z,31.20
2019-01-02T03:39:01.316Z,31.23
2019-01-02T03:41:32.122Z,39.43
2019-01-02T03:44:01.639Z,42.53
2019-01-02T03:46:31.344Z,33.77
2019-01-02T03:49:01.008Z,58.77
2019-01-02T03:51:31.849Z,45.00
2019-01-02T03:54:01.672Z,39.57
2019-01-02T03:56:31.756Z,27.27
2019-01-02T03:59:01.381Z,42.50
2019-01-02T04:01:33.019Z,35.23
2019-01-02T04:04:02.909Z,34.80
2019-01-02T04:06:32.471Z,39.83
2019-01-02T04:09:02.301Z,22.90
2019-01-02T04:11:33.077Z,26.53
2019-01-02T04:14:02.946Z,27.20
2019-01-02T04:16:32.440Z,46.10
2019-01-02T04:19:02.566Z,40.87
2019-01-02T04:21:32.186Z,28.67
2019-01-02T04:24:01.682Z,32.33
2019-01-02T04:26:31.201Z,34.97
2019-01-02T04:29:00.789Z,32.13
2019-01-02T04:31:30.467Z,34.93
2019-01-02T04:34:00.067Z,28.70
2019-01-02T04:36:29.664Z,23.83
2019-01-02T04:38:59.173Z,27.23
2019-01-02T04:41:28.708Z,33.28
2019-01-02T04:43:58.592Z,46.43
2019-01-02T04:46:28.099Z,31.97
2019-01-02T04:48:58.695Z,33.13
2019-01-02T04:51:28.206Z,41.70
2019-01-02T04:53:57.702Z,34.30
2019-01-02T04:56:27.231Z,34.43
2019-01-02T04:58:56.724Z,29.30
2019-01-02T05:01:27.290Z,21.97
2019-01-02T05:03:57.051Z,34.37
2019-01-02T05:06:26.637Z,30.95
2019-01-02T05:08:56.203Z,31.43
2019-01-02T05:11:26.052Z,33.35
2019-01-02T05:13:55.550Z,40.63
2019-01-02T05:16:25.344Z,40.00
2019-01-02T05:18:54.886Z,40.83
2019-01-02T05:21:24.383Z,37.80
2019-01-02T05:23:53.888Z,32.90
2019-01-02T05:26:23.416Z,33.02
2019-01-02T05:28:53.347Z,41.70
2019-01-02T05:31:23.248Z,41.55
2019-01-02T05:33:53.390Z,54.30
2019-01-02T05:36:23.196Z,34.43
2019-01-02T05:38:52.702Z,46.77
2019-01-02T05:41:22.429Z,32.33
2019-01-02T05:43:52.590Z,32.53
2019-01-02T05:46:22.147Z,51.93
2019-01-02T05:48:51.755Z,40.83
2019-01-02T05:51:21.523Z,47.50
2019-01-02T05:53:51.309Z,44.43
2019-01-02T05:56:20.856Z,25.47
2019-01-02T05:58:50.754Z,37.40
2019-01-02T06:01:20.263Z,41.67
2019-01-02T06:03:49.762Z,40.50
2019-01-02T06:06:19.261Z,46.02
2019-01-02T06:08:49.109Z,34.87
2019-01-02T06:11:19.050Z,32.63
2019-01-02T06:13:48.851Z,48.07
2019-01-02T06:16:18.368Z,53.50
2019-01-02T06:18:48.194Z,55.78
2019-01-02T06:21:17.781Z,42.03
2019-01-02T06:23:47.568Z,55.33
2019-01-02T06:26:17.394Z,40.80
2019-01-02T06:28:46.967Z,36.37
2019-01-02T06:31:16.758Z,45.87
2019-01-02T06:33:46.558Z,35.70
2019-01-02T06:36:16.339Z,49.63
2019-01-02T06:38:45.834Z,46.90
2019-01-02T06:41:16.984Z,41.13
2019-01-02T06:43:46.707Z,30.00
2019-01-02T06:46:16.542Z,42.07
2019-01-02T06:48:46.385Z,59.33
2019-01-02T06:51:16.342Z,46.23
2019-01-02T06:53:45.942Z,46.90
2019-01-02T06:56:15.462Z,33.55
2019-01-02T06:58:45.337Z,37.07
2019-01-02T07:01:15.231Z,28.07
2019-01-02T07:03:44.817Z,56.77
2019-01-02T07:06:14.652Z,51.80
2019-01-02T07:08:44.144Z,47.27
2019-01-02T07:11:13.993Z,44.30
2019-01-02T07:13:43.776Z,43.90
2019-01-02T07:16:13.290Z,38.47
2019-01-02T07:18:42.939Z,32.03
2019-01-02T07:21:13.285Z,49.75
2019-01-02T07:23:43.265Z,34.40
2019-01-02T07:26:13.457Z,30.10
2019-01-02T07:28:43.538Z,64.97
2019-01-02T07:31:13.711Z,51.90
2019-01-02T07:33:52.207Z,28.63
2019-01-02T07:37:00.009Z,31.50
2019-01-02T07:40:05.428Z,22.87
2019-01-02T07:43:01.206Z,33.77
2019-01-02T07:46:18.770Z,37.30
2019-01-02T07:49:15.055Z,28.47
2019-01-02T07:52:29.419Z,34.70
2019-01-02T07:55:28.044Z,26.33
2019-01-02T07:58:22.958Z,36.13
2019-01-02T08:01:16.335Z,22.75
2019-01-02T08:04:17.109Z,27.47
2019-01-02T08:07:18.748Z,24.63
2019-01-02T08:10:21.022Z,19.23
2019-01-02T08:13:30.501Z,23.73
2019-01-02T08:16:32.933Z,22.80
2019-01-02T08:19:24.791Z,32.43
2019-01-02T08:22:44.815Z,28.50
2019-01-02T08:25:30.632Z,26.47
2019-01-02T08:28:43.731Z,35.17
2019-01-02T08:31:59.754Z,12.80
2019-01-02T08:35:11.267Z,18.35
2019-01-02T08:38:11.361Z,20.87
2019-01-02T08:41:09.192Z,12.20
2019-01-02T08:44:38.232Z,15.77
2019-01-02T08:47:39.704Z,15.73
2019-01-02T08:50:43.796Z,11.70
2019-01-02T08:53:50.179Z,11.23
2019-01-02T08:56:53.815Z,8.25
2019-01-02T08:59:45.697Z,10.70
2019-01-02T09:02:52.397Z,9.60
2019-01-02T09:06:06.243Z,7.03
2019-01-02T09:09:17.428Z,12.23
2019-01-02T09:12:06.062Z,12.37
2019-01-02T09:15:07.521Z,11.10
2019-01-02T09:17:59.297Z,6.67
2019-01-02T09:21:01.950Z,10.20
2019-01-02T09:23:49.433Z,10.87
2019-01-02T09:27:18.747Z,10.17
2019-01-02T09:30:25.545Z,5.03
2019-01-02T09:33:19.290Z,3.98
2019-01-02T09:36:18.940Z,5.10
2019-01-02T09:39:07.308Z,7.33
2019-01-02T09:42:02.149Z,7.70
2019-01-02T09:45:17.401Z,8.23
2019-01-02T09:47:57.675Z,6.70
2019-01-02T09:51:13.878Z,7.28
2019-01-02T09:54:20.552Z,7.23
2019-01-02T09:57:43.793Z,3.77
2019-01-02T10:00:52.960Z,5.73
2019-01-02T10:03:56.318Z,8.95
2019-01-02T10:06:39.943Z,8.03
2019-01-02T10:09:39.688Z,5.43
2019-01-02T10:13:11.780Z,9.60
2019-01-02T10:16:03.569Z,6.37
2019-01-02T10:19:14.920Z,4.67
2019-01-02T10:22:27.930Z,7.27
2019-01-02T10:25:32.434Z,3.90
2019-01-02T10:28:43.069Z,10.78
2019-01-02T10:32:03.246Z,7.07
2019-01-02T10:35:20.721Z,10.30
2019-01-02T10:38:38.053Z,8.83
2019-01-02T10:41:29.095Z,8.43
2019-01-02T10:44:43.142Z,9.67
2019-01-02T10:47:27.827Z,7.30
2019-01-02T10:50:39.081Z,6.30
2019-01-02T10:53:20.506Z,6.50
2019-01-02T10:56:23.127Z,4.63
2019-01-02T10:59:52.445Z,6.13
2019-01-02T11:03:06.215Z,4.78
2019-01-02T11:06:04.136Z,2.50
2019-01-02T11:08:58.373Z,4.50
2019-01-02T11:12:06.760Z,7.90
2019-01-02T11:15:01.992Z,8.30
2019-01-02T11:18:02.134Z,7.73
2019-01-02T11:21:12.001Z,9.90
2019-01-02T11:24:33.876Z,9.77
2019-01-02T11:27:34.668Z,8.83
2019-01-02T11:30:40.665Z,2.70
2019-01-02T11:33:57.794Z,3.00
2019-01-02T11:37:06.901Z,7.97
2019-01-02T11:40:14.068Z,5.90
2019-01-02T11:43:08.100Z,12.13
2019-01-02T11:45:37.630Z,6.40
2019-01-02T11:48:07.113Z,5.07
2019-01-02T11:50:36.774Z,6.20
2019-01-02T11:53:06.563Z,3.77
2019-01-02T11:55:36.144Z,2.10
2019-01-02T11:58:05.876Z,7.10
2019-01-02T12:00:35.470Z,4.20
2019-01-02T12:03:04.942Z,7.70
2019-01-02T12:05:34.466Z,5.15
2019-01-02T12:08:03.961Z,4.87
2019-01-02T12:10:33.888Z,4.20
2019-01-02T12:13:03.389Z,12.80
2019-01-02T12:15:32.902Z,11.00
2019-01-02T12:18:02.769Z,14.43
2019-01-02T12:20:32.257Z,11.93
2019-01-02T12:23:01.731Z,5.40
2019-01-02T12:25:31.210Z,8.60
2019-01-02T12:28:00.974Z,14.35
2019-01-02T12:30:30.792Z,7.83
2019-01-02T12:33:00.418Z,4.67
2019-01-02T12:35:30.046Z,5.58
2019-01-02T12:37:59.582Z,6.50
2019-01-02T12:40:29.075Z,2.93
2019-01-02T12:42:58.539Z,5.80
2019-01-02T12:45:28.076Z,4.15
2019-01-02T12:47:57.556Z,7.70
2019-01-02T12:50:27.124Z,4.80
2019-01-02T12:52:57.248Z,11.97
2019-01-02T12:55:26.817Z,4.60
2019-01-02T12:57:56.294Z,6.78
2019-01-02T13:00:26.854Z,12.33
2019-01-02T13:03:21.567Z,5.33
2019-01-02T13:06:11.508Z,6.83
2019-01-02T13:09:15.049Z,4.90
2019-01-02T13:12:15.747Z,8.67
2019-01-02T13:15:27.144Z,5.27
2019-01-02T13:18:18.113Z,5.55
2019-01-02T13:21:42.051Z,14.47
2019-01-02T13:24:42.382Z,7.97
2019-01-02T13:27:37.741Z,6.87
2019-01-02T13:30:45.575Z,3.90
2019-01-02T13:33:53.875Z,3.83
2019-01-02T13:36:36.483Z,5.35
2019-01-02T13:39:16.685Z,4.85
2019-01-02T13:42:21.789Z,5.30
2019-01-02T13:45:00.347Z,5.30
2019-01-02T13:48:00.057Z,7.55
2019-01-02T13:50:52.059Z,2.23
2019-01-02T13:53:21.581Z,3.85
2019-01-02T13:55:52.319Z,8.50
2019-01-02T13:58:21.862Z,5.87
2019-01-02T14:00:51.662Z,9.55
2019-01-02T14:03:22.399Z,11.17
2019-01-02T14:05:52.067Z,8.07
2019-01-02T14:08:21.848Z,6.00
2019-01-02T14:10:51.613Z,1.90
2019-01-02T14:13:21.317Z,4.20
2019-01-02T14:15:50.835Z,9.30
2019-01-02T14:18:20.300Z,5.57
2019-01-02T14:20:50.178Z,6.93
2019-01-02T14:23:19.825Z,4.22
2019-01-02T14:25:49.930Z,6.17
2019-01-02T14:28:19.971Z,9.23
2019-01-02T14:30:50.922Z,8.00
2019-01-02T14:33:21.297Z,3.10
2019-01-02T14:35:51.115Z,5.33
2019-01-02T14:38:20.640Z,4.40
2019-01-02T14:40:50.430Z,4.93
2019-01-02T14:43:20.336Z,4.45
2019-01-02T14:45:51.109Z,7.97
2019-01-02T14:48:20.831Z,5.47
2019-01-02T14:50:50.664Z,6.13
2019-01-02T14:53:20.696Z,6.47
2019-01-02T14:55:50.658Z,9.33
2019-01-02T14:58:20.403Z,7.75
2019-01-02T15:00:50.725Z,7.33
2019-01-02T15:03:20.492Z,7.22
2019-01-02T15:05:51.029Z,7.33
2019-01-02T15:08:20.564Z,6.00
2019-01-02T15:10:50.604Z,5.73
2019-01-02T15:13:21.139Z,12.55
2019-01-02T15:15:50.984Z,9.83
2019-01-02T15:18:20.720Z,4.45
2019-01-02T15:20:50.806Z,6.73
2019-01-02T15:23:20.796Z,6.53
2019-01-02T15:25:51.433Z,12.63
2019-01-02T15:28:20.880Z,9.30
2019-01-02T15:30:50.912Z,7.50
2019-01-02T15:33:20.974Z,4.75
2019-01-02T15:35:50.975Z,5.45
2019-01-02T15:38:21.164Z,9.53
2019-01-02T15:40:51.241Z,10.00
2019-01-02T15:43:21.136Z,3.62
2019-01-02T15:45:51.639Z,3.35
2019-01-02T15:48:21.208Z,6.05
2019-01-02T15:50:51.419Z,3.65
2019-01-02T15:53:21.461Z,3.83
2019-01-02T15:55:51.500Z,1.87
2019-01-02T15:58:21.384Z,4.67
2019-01-02T16:00:51.356Z,4.10
2019-01-02T16:03:26.020Z,3.30
2019-01-02T16:05:55.582Z,5.17
2019-01-02T16:08:25.390Z,5.53
2019-01-02T16:10:54.943Z,7.60
2019-01-02T16:13:24.894Z,9.97
2019-01-02T16:15:54.439Z,24.57
2019-01-02T16:18:24.252Z,5.67
2019-01-02T16:20:53.756Z,9.67
2019-01-02T16:23:24.618Z,5.90
2019-01-02T16:25:54.146Z,5.20
2019-01-02T16:28:23.670Z,5.63
2019-01-02T16:30:53.219Z,9.33
2019-01-02T16:33:22.971Z,7.33
2019-01-02T16:35:52.646Z,9.20
2019-01-02T16:38:22.219Z,8.83
2019-01-02T16:40:52.345Z,9.87
2019-01-02T16:43:22.251Z,5.30
2019-01-02T16:45:52.190Z,5.17
2019-01-02T16:48:22.712Z,6.45
2019-01-02T16:50:52.231Z,4.40
2019-01-02T16:53:22.525Z,4.22
2019-01-02T16:55:52.780Z,6.63
2019-01-02T16:58:22.325Z,5.83
2019-01-02T17:00:52.452Z,7.03
2019-01-02T17:03:22.454Z,11.30
2019-01-02T17:05:52.866Z,8.05
2019-01-02T17:08:22.562Z,4.80
2019-01-02T17:10:52.687Z,7.10
2019-01-02T17:13:22.580Z,4.37
2019-01-02T17:15:52.643Z,5.35
2019-01-02T17:18:22.687Z,11.60
2019-01-02T17:20:52.717Z,6.17
2019-01-02T17:23:22.760Z,11.47
2019-01-02T17:25:52.806Z,7.80
2019-01-02T17:28:23.523Z,4.42
2019-01-02T17:30:53.016Z,5.73
2019-01-02T17:33:22.918Z,6.08
2019-01-02T17:35:54.158Z,5.45
2019-01-02T17:38:23.716Z,6.23
2019-01-02T17:40:53.254Z,4.90
2019-01-02T17:43:23.222Z,2.37
2019-01-02T17:45:53.212Z,4.85
2019-01-02T17:48:23.615Z,5.03
2019-01-02T17:50:53.157Z,3.67
2019-01-02T17:53:23.241Z,1.15
2019-01-02T17:55:53.384Z,4.73
2019-01-02T17:58:23.305Z,5.23
2019-01-02T18:00:53.923Z,4.20
2019-01-02T18:03:23.854Z,3.93
2019-01-02T18:05:53.564Z,4.75
2019-01-02T18:08:23.902Z,2.83
2019-01-02T18:10:53.512Z,7.00
2019-01-02T18:13:23.527Z,4.55
2019-01-02T18:15:54.191Z,3.10
2019-01-02T18:18:23.825Z,8.07
2019-01-02T18:20:54.239Z,4.72
2019-01-02T18:23:24.010Z,12.40
2019-01-02T18:25:54.037Z,2.77
2019-01-02T18:28:24.104Z,5.57
2019-01-02T18:30:53.837Z,5.03
2019-01-02T18:33:23.841Z,3.40
2019-01-02T18:35:54.646Z,1.47
2019-01-02T18:38:24.719Z,2.50
2019-01-02T18:40:54.266Z,6.53
2019-01-02T18:43:24.367Z,3.87
2019-01-02T18:45:54.268Z,2.85
2019-01-02T18:48:24.133Z,3.87
2019-01-02T18:50:54.219Z,4.15
2019-01-02T18:53:24.449Z,6.62
2019-01-02T18:55:54.455Z,4.20
2019-01-02T18:58:24.525Z,8.75
2019-01-02T19:00:54.390Z,3.00
2019-01-02T19:03:24.356Z,2.50
2019-01-02T19:05:54.900Z,1.80
2019-01-02T19:08:24.645Z,3.80
2019-01-02T19:10:54.510Z,3.87
2019-01-02T19:13:24.514Z,4.28
2019-01-02T19:15:54.914Z,9.13
2019-01-02T19:18:24.876Z,2.47
2019-01-02T19:20:54.736Z,3.70
2019-01-02T19:23:25.015Z,6.65
2019-01-02T19:25:54.815Z,3.72
2019-01-02T19:28:24.828Z,4.42
2019-01-02T19:30:55.193Z,2.05
2019-01-02T19:33:26.688Z,3.63
2019-01-02T19:35:56.229Z,6.13
2019-01-02T19:38:25.725Z,3.50
2019-01-02T19:40:55.637Z,4.60
2019-01-02T19:43:25.223Z,1.30
2019-01-02T19:45:58.357Z,4.78
2019-01-02T19:48:28.195Z,2.30
2019-01-02T19:50:58.180Z,4.60
2019-01-02T19:53:28.323Z,2.13
2019-01-02T19:55:58.357Z,5.00
2019-01-02T19:58:28.477Z,11.53
2019-01-02T20:00:59.031Z,3.17
2019-01-02T20:03:28.795Z,2.40
2019-01-02T20:05:58.646Z,4.00
2019-01-02T20:08:28.475Z,1.00
2019-01-02T20:10:58.433Z,4.37
2019-01-02T20:13:28.264Z,6.33
2019-01-02T20:15:59.526Z,3.87
2019-01-02T20:18:29.118Z,2.23
2019-01-02T20:20:59.027Z,6.40
2019-01-02T20:23:28.907Z,3.40
2019-01-02T20:25:58.806Z,5.70
2019-01-02T20:28:31.387Z,5.50
2019-01-02T20:31:01.409Z,2.87
2019-01-02T20:33:31.337Z,4.55
2019-01-02T20:36:01.177Z,3.00
2019-01-02T20:38:30.841Z,4.07
2019-01-02T20:41:00.398Z,1.10
2019-01-02T20:43:29.912Z,2.57
2019-01-02T20:45:59.470Z,3.97
2019-01-02T20:48:31.684Z,1.53
2019-01-02T20:51:01.249Z,4.20
2019-01-02T20:53:31.345Z,5.00
2019-01-02T20:56:01.359Z,2.02
2019-01-02T20:58:31.025Z,7.00
2019-01-02T21:01:00.636Z,3.13
2019-01-02T21:03:30.200Z,2.23
2019-01-02T21:05:59.785Z,4.60
2019-01-02T21:08:38.340Z,2.77
2019-01-02T21:11:07.391Z,2.25
2019-01-02T21:13:36.943Z,4.67
2019-01-02T21:16:06.654Z,3.58
2019-01-02T21:18:45.197Z,6.08
2019-01-02T21:21:16.110Z,4.05
2019-01-02T21:23:45.724Z,4.10
2019-01-02T21:26:20.083Z,1.87
2019-01-02T21:28:49.701Z,4.17
2019-01-02T21:31:19.322Z,0.70
2019-01-02T21:33:49.212Z,13.20
2019-01-02T21:36:22.740Z,8.43
2019-01-02T21:38:52.297Z,7.70
2019-01-02T21:41:22.591Z,2.13
2019-01-02T21:43:53.709Z,2.77
2019-01-02T21:46:23.455Z,4.27
2019-01-02T21:48:53.030Z,7.00
2019-01-02T21:51:22.992Z,2.30
2019-01-02T21:53:53.874Z,4.33
2019-01-02T21:56:23.738Z,2.97
2019-01-02T21:58:53.788Z,1.17
2019-01-02T22:01:23.581Z,4.10
2019-01-02T22:03:54.120Z,4.00
2019-01-02T22:06:23.689Z,3.13
2019-01-02T22:08:54.853Z,5.03
2019-01-02T22:11:24.727Z,9.17
2019-01-02T22:13:54.334Z,2.33
2019-01-02T22:16:23.914Z,4.33
2019-01-02T22:19:18.794Z,7.37
2019-01-02T22:21:48.844Z,5.07
2019-01-02T22:24:18.355Z,4.17
2019-01-02T22:26:47.883Z,3.20
2019-01-02T22:29:17.718Z,5.10
2019-01-02T22:31:48.556Z,1.30
2019-01-02T22:34:18.170Z,1.93
2019-01-02T22:36:47.654Z,3.63
2019-01-02T22:39:17.165Z,1.17
2019-01-02T22:41:46.708Z,4.10
2019-01-02T22:44:16.566Z,5.53
2019-01-02T22:46:46.485Z,3.65
2019-01-02T22:49:16.293Z,3.70
2019-01-02T22:51:46.017Z,6.58
2019-01-02T22:54:15.716Z,5.00
2019-01-02T22:56:45.205Z,1.17
2019-01-02T22:59:14.707Z,4.70
2019-01-02T23:01:53.183Z,3.77
2019-01-02T23:04:34.888Z,3.73
2019-01-02T23:07:21.557Z,3.17
2019-01-02T23:10:14.044Z,4.77
2019-01-02T23:13:01.380Z,2.00
2019-01-02T23:15:49.003Z,4.70
2019-01-02T23:18:39.828Z,5.03
2019-01-02T23:21:34.567Z,2.30
2019-01-02T23:24:21.862Z,6.03
2019-01-02T23:27:09.215Z,2.33
2019-01-02T23:29:57.150Z,5.80
2019-01-02T23:32:53.325Z,7.53
2019-01-02T23:35:44.748Z,5.80
2019-01-02T23:38:31.942Z,6.80
2019-01-02T23:41:32.720Z,3.27
2019-01-02T23:44:29.926Z,2.90
2019-01-02T23:47:17.019Z,2.67
2019-01-02T23:50:04.373Z,4.73
2019-01-02T23:53:05.327Z,5.47
2019-01-02T23:56:12.207Z,1.60
2019-01-02T23:59:06.569Z,3.40
